createdAt,value
2022-10-23T00:00:53.221Z,9.87
2022-10-23T00:01:55.521Z,9.87
2022-10-23T00:02:59.693Z,9.89
2022-10-23T00:04:12.779Z,9.93
2022-10-23T00:05:14.991Z,10.00
2022-10-23T00:06:17.960Z,10.01
2022-10-23T00:07:20.441Z,9.98
2022-10-23T00:08:22.728Z,9.98
2022-10-23T00:09:32.643Z,10.02
2022-10-23T00:10:35.568Z,10.14
2022-10-23T00:11:38.099Z,10.15
2022-10-23T00:12:40.646Z,10.11
2022-10-23T00:13:43.564Z,10.08
2022-10-23T00:14:45.814Z,10.06
2022-10-23T00:15:48.222Z,10.08
2022-10-23T00:16:51.126Z,10.11
2022-10-23T00:17:53.708Z,10.14
2022-10-23T00:18:56.155Z,10.20
2022-10-23T00:19:58.817Z,10.22
2022-10-23T00:21:01.622Z,10.17
2022-10-23T00:22:03.917Z,10.18
2022-10-23T00:23:06.200Z,10.15
2022-10-23T00:25:12.150Z,10.13
2022-10-23T00:26:15.992Z,10.17
2022-10-23T00:27:18.326Z,10.15
2022-10-23T00:28:20.677Z,10.19
2022-10-23T00:29:22.944Z,10.17
2022-10-23T00:30:25.499Z,10.19
2022-10-23T00:31:27.680Z,10.21
2022-10-23T00:32:29.981Z,10.18
2022-10-23T00:33:36.478Z,10.18
2022-10-23T00:34:38.782Z,10.18
2022-10-23T00:35:42.322Z,10.18
2022-10-23T00:36:44.527Z,10.19
2022-10-23T00:37:46.842Z,10.16
2022-10-23T00:38:50.306Z,10.25
2022-10-23T00:39:53.057Z,10.21
2022-10-23T00:40:55.274Z,10.19
2022-10-23T00:41:57.707Z,10.16
2022-10-23T00:43:00.083Z,10.17
2022-10-23T00:44:02.443Z,10.13
2022-10-23T00:45:16.797Z,10.13
2022-10-23T00:46:18.961Z,10.14
2022-10-23T00:47:21.917Z,10.13
2022-10-23T00:48:26.255Z,10.08
2022-10-23T00:49:28.717Z,10.09
2022-10-23T00:50:33.442Z,10.10
2022-10-23T00:51:46.924Z,10.10
2022-10-23T00:52:51.775Z,10.09
2022-10-23T00:54:22.979Z,10.05
2022-10-23T00:55:24.637Z,10.06
2022-10-23T00:56:27.322Z,10.04
2022-10-23T00:57:29.775Z,9.99
2022-10-23T00:58:32.843Z,10.05
2022-10-23T00:59:35.064Z,10.03
2022-10-23T01:00:46.373Z,10.02
2022-10-23T01:01:49.166Z,9.99
2022-10-23T01:02:52.713Z,9.94
2022-10-23T01:03:56.067Z,9.95
2022-10-23T01:04:58.394Z,9.93
2022-10-23T01:06:09.700Z,9.95
2022-10-23T01:07:15.277Z,9.83
2022-10-23T01:08:29.010Z,9.76
2022-10-23T01:09:35.950Z,9.78
2022-10-23T01:10:54.713Z,9.81
2022-10-23T01:12:18.663Z,9.80
2022-10-23T01:13:26.605Z,9.88
2022-10-23T01:14:35.936Z,9.91
2022-10-23T01:15:41.222Z,9.97
2022-10-23T01:17:02.408Z,9.98
2022-10-23T01:18:29.936Z,9.87
2022-10-23T01:19:50.547Z,9.91
2022-10-23T01:20:55.928Z,9.84
2022-10-23T01:22:13.044Z,9.79
2022-10-23T01:23:51.432Z,9.77
2022-10-23T01:24:56.553Z,9.72
2022-10-23T01:26:39.810Z,9.70
2022-10-23T01:27:56.330Z,9.71
2022-10-23T01:29:16.900Z,9.65
2022-10-23T01:30:19.250Z,9.67
2022-10-23T01:31:33.058Z,9.71
2022-10-23T01:32:48.431Z,9.72
2022-10-23T01:34:03.856Z,9.75
2022-10-23T01:35:19.024Z,9.74
2022-10-23T01:36:29.505Z,9.67
2022-10-23T01:37:44.874Z,9.61
2022-10-23T01:38:58.570Z,9.60
2022-10-23T01:40:05.393Z,9.53
2022-10-23T01:41:14.806Z,9.54
2022-10-23T01:42:21.206Z,9.55
2022-10-23T01:43:35.446Z,9.54
2022-10-23T01:44:50.891Z,9.56
2022-10-23T01:45:59.431Z,9.55
2022-10-23T01:47:06.356Z,9.57
2022-10-23T01:48:18.267Z,9.55
2022-10-23T01:49:23.195Z,9.54
2022-10-23T01:50:30.478Z,9.49
2022-10-23T01:51:39.192Z,9.47
2022-10-23T01:52:43.593Z,9.49
2022-10-23T01:53:48.543Z,9.47
2022-10-23T01:54:53.822Z,9.46
2022-10-23T01:55:56.928Z,9.46
2022-10-23T01:57:02.050Z,9.39
2022-10-23T01:58:08.669Z,9.43
2022-10-23T01:59:21.595Z,9.41
2022-10-23T02:00:24.012Z,9.40
2022-10-23T02:01:30.240Z,9.41
2022-10-23T02:02:34.442Z,9.36
2022-10-23T02:03:40.891Z,9.33
2022-10-23T02:05:04.585Z,9.30
2022-10-23T02:06:07.105Z,9.23
2022-10-23T02:07:09.360Z,9.12
2022-10-23T02:08:12.024Z,9.13
2022-10-23T02:09:15.193Z,9.06
2022-10-23T02:10:17.944Z,9.05
2022-10-23T02:11:21.954Z,9.05
2022-10-23T02:12:40.044Z,9.04
2022-10-23T02:14:16.891Z,8.98
2022-10-23T02:15:31.135Z,9.01
2022-10-23T02:16:52.799Z,8.89
2022-10-23T02:18:24.559Z,8.88
2022-10-23T02:19:43.956Z,8.92
2022-10-23T02:20:51.759Z,8.95
2022-10-23T02:22:07.580Z,8.92
2022-10-23T02:23:33.345Z,8.80
2022-10-23T02:24:43.857Z,8.82
2022-10-23T02:26:10.983Z,8.83
2022-10-23T02:27:19.798Z,8.81
2022-10-23T02:28:34.275Z,8.74
2022-10-23T02:29:51.896Z,8.68
2022-10-23T02:30:59.366Z,8.67
2022-10-23T02:32:02.288Z,8.64
2022-10-23T02:33:05.969Z,8.65
2022-10-23T02:34:08.293Z,8.56
2022-10-23T02:35:11.462Z,8.53
2022-10-23T02:36:14.856Z,8.56
2022-10-23T02:37:17.585Z,8.51
2022-10-23T02:38:36.752Z,8.44
2022-10-23T02:39:39.773Z,8.38
2022-10-23T02:40:47.766Z,8.39
2022-10-23T02:41:56.136Z,8.31
2022-10-23T02:43:08.333Z,8.16
2022-10-23T02:44:10.487Z,8.15
2022-10-23T02:45:23.202Z,8.23
2022-10-23T02:46:30.344Z,8.14
2022-10-23T02:47:43.139Z,8.17
2022-10-23T02:48:57.884Z,8.16
2022-10-23T02:50:42.660Z,8.14
2022-10-23T02:52:21.136Z,8.19
2022-10-23T02:53:49.411Z,8.15
2022-10-23T02:55:24.070Z,8.14
2022-10-23T02:56:41.319Z,8.12
2022-10-23T02:57:49.879Z,8.14
2022-10-23T02:58:58.345Z,8.12
2022-10-23T03:00:07.869Z,8.10
2022-10-23T03:01:15.892Z,8.08
2022-10-23T03:02:26.144Z,8.03
2022-10-23T03:03:35.469Z,8.04
2022-10-23T03:04:40.238Z,8.07
2022-10-23T03:05:45.214Z,8.04
2022-10-23T03:06:51.017Z,8.12
2022-10-23T03:07:54.125Z,8.17
2022-10-23T03:09:05.052Z,8.24
2022-10-23T03:10:09.111Z,8.25
2022-10-23T03:11:11.924Z,8.27
2022-10-23T03:12:14.379Z,8.30
2022-10-23T03:13:16.713Z,8.31
2022-10-23T03:14:19.799Z,8.32
2022-10-23T03:15:22.544Z,8.33
2022-10-23T03:16:26.667Z,8.33
2022-10-23T03:17:30.291Z,8.36
2022-10-23T03:18:35.374Z,8.31
2022-10-23T03:19:38.365Z,8.33
2022-10-23T03:20:40.631Z,8.35
2022-10-23T03:21:42.979Z,8.35
2022-10-23T03:22:45.967Z,8.36
2022-10-23T03:23:48.793Z,8.40
2022-10-23T03:24:54.606Z,8.44
2022-10-23T03:25:57.073Z,8.46
2022-10-23T03:27:13.848Z,8.46
2022-10-23T03:28:16.139Z,8.47
2022-10-23T03:29:18.925Z,8.46
2022-10-23T03:30:22.102Z,8.48
2022-10-23T03:31:29.105Z,8.47
2022-10-23T03:32:34.079Z,8.45
2022-10-23T03:33:36.350Z,8.43
2022-10-23T03:34:44.447Z,8.45
2022-10-23T03:36:56.491Z,8.45
2022-10-23T03:37:58.676Z,8.48
2022-10-23T03:39:02.138Z,8.51
2022-10-23T03:40:04.907Z,8.54
2022-10-23T03:41:10.344Z,8.58
2022-10-23T03:42:12.724Z,8.61
2022-10-23T03:43:15.303Z,8.64
2022-10-23T03:44:18.188Z,8.71
2022-10-23T03:45:21.005Z,8.72
2022-10-23T03:46:24.477Z,8.71
2022-10-23T03:47:32.406Z,8.77
2022-10-23T03:48:39.370Z,8.77
2022-10-23T03:49:41.923Z,8.78
2022-10-23T03:50:44.140Z,8.90
2022-10-23T03:51:52.157Z,8.92
2022-10-23T03:52:56.532Z,8.93
2022-10-23T03:53:58.795Z,9.00
2022-10-23T03:55:01.162Z,8.98
2022-10-23T03:56:03.518Z,9.00
2022-10-23T03:57:05.707Z,8.99
2022-10-23T03:58:08.034Z,9.00
2022-10-23T03:59:10.347Z,9.03
2022-10-23T04:00:13.193Z,9.08
2022-10-23T04:01:22.923Z,9.07
2022-10-23T04:02:25.347Z,9.05
2022-10-23T04:03:27.914Z,9.14
2022-10-23T04:04:30.572Z,9.08
2022-10-23T04:05:33.394Z,9.08
2022-10-23T04:06:36.127Z,9.08
2022-10-23T04:07:39.625Z,9.06
2022-10-23T04:08:44.152Z,9.07
2022-10-23T04:09:51.498Z,9.07
2022-10-23T04:10:55.183Z,9.08
2022-10-23T04:12:12.016Z,9.10
2022-10-23T04:13:14.349Z,9.07
2022-10-23T04:14:17.716Z,9.02
2022-10-23T04:15:20.233Z,9.04
2022-10-23T04:16:22.714Z,9.04
2022-10-23T04:17:25.119Z,9.02
2022-10-23T04:18:30.555Z,8.99
2022-10-23T04:19:32.860Z,8.95
2022-10-23T04:20:35.273Z,8.95
2022-10-23T04:21:38.042Z,8.91
2022-10-23T04:22:40.497Z,8.85
2022-10-23T04:23:43.349Z,8.83
2022-10-23T04:24:51.612Z,8.83
2022-10-23T04:25:57.625Z,8.81
2022-10-23T04:27:01.544Z,8.90
2022-10-23T04:28:05.263Z,8.80
2022-10-23T04:29:12.226Z,8.73
2022-10-23T04:30:14.645Z,8.72
2022-10-23T04:31:17.025Z,8.69
2022-10-23T04:32:19.344Z,8.72
2022-10-23T04:33:21.650Z,8.72
2022-10-23T04:34:26.333Z,8.72
2022-10-23T04:35:29.642Z,8.65
2022-10-23T04:36:31.902Z,8.68
2022-10-23T04:37:40.954Z,8.70
2022-10-23T04:38:43.750Z,8.69
2022-10-23T04:39:46.083Z,8.63
2022-10-23T04:40:49.494Z,8.54
2022-10-23T04:41:55.974Z,8.56
2022-10-23T04:43:00.500Z,8.55
2022-10-23T04:44:07.944Z,8.58
2022-10-23T04:45:13.538Z,8.60
2022-10-23T04:46:18.115Z,8.54
2022-10-23T04:47:22.853Z,8.46
2022-10-23T04:48:35.174Z,8.50
2022-10-23T04:49:55.603Z,8.48
2022-10-23T04:51:17.889Z,8.36
2022-10-23T04:52:34.343Z,8.39
2022-10-23T04:53:59.565Z,8.36
2022-10-23T04:55:19.477Z,8.36
2022-10-23T04:56:39.027Z,8.38
2022-10-23T04:57:44.412Z,8.40
2022-10-23T04:58:47.531Z,8.40
2022-10-23T04:59:50.022Z,8.39
2022-10-23T05:00:53.900Z,8.34
2022-10-23T05:01:59.941Z,8.25
2022-10-23T05:03:02.249Z,8.20
2022-10-23T05:04:11.000Z,8.14
2022-10-23T05:05:33.924Z,8.10
2022-10-23T05:07:03.579Z,8.06
2022-10-23T05:08:23.684Z,8.13
2022-10-23T05:10:01.153Z,8.17
2022-10-23T05:11:12.575Z,8.25
2022-10-23T05:12:20.192Z,8.21
2022-10-23T05:13:23.977Z,8.25
2022-10-23T05:14:26.225Z,8.29
2022-10-23T05:15:28.647Z,8.24
2022-10-23T05:16:43.286Z,8.25
2022-10-23T05:17:49.433Z,8.30
2022-10-23T05:18:51.912Z,8.28
2022-10-23T05:19:58.109Z,8.31
2022-10-23T05:21:17.722Z,8.31
2022-10-23T05:22:27.105Z,8.29
2022-10-23T05:23:32.273Z,8.29
2022-10-23T05:24:37.236Z,8.31
2022-10-23T05:25:40.523Z,8.34
2022-10-23T05:26:53.137Z,8.37
2022-10-23T05:27:56.097Z,8.39
2022-10-23T05:28:58.443Z,8.39
2022-10-23T05:30:00.706Z,8.40
2022-10-23T05:31:06.571Z,8.30
2022-10-23T05:32:13.701Z,8.36
2022-10-23T05:33:16.564Z,8.34
2022-10-23T05:34:23.493Z,8.38
2022-10-23T05:35:25.877Z,8.64
2022-10-23T05:36:28.756Z,8.74
2022-10-23T05:37:32.935Z,8.73
2022-10-23T05:38:42.934Z,8.66
2022-10-23T05:39:49.431Z,8.58
2022-10-23T05:40:53.401Z,8.54
2022-10-23T05:41:57.569Z,8.49
2022-10-23T05:43:00.907Z,8.51
2022-10-23T05:44:32.109Z,8.50
2022-10-23T05:45:54.638Z,8.52
2022-10-23T05:46:59.814Z,8.48
2022-10-23T05:48:34.566Z,8.56
2022-10-23T05:49:55.918Z,8.69
2022-10-23T05:51:23.647Z,8.71
2022-10-23T05:52:39.955Z,8.68
2022-10-23T05:54:11.407Z,8.62
2022-10-23T05:55:23.625Z,8.65
2022-10-23T05:56:43.093Z,8.69
2022-10-23T05:57:54.976Z,8.74
2022-10-23T05:59:14.704Z,8.81
2022-10-23T06:00:36.590Z,8.97
2022-10-23T06:01:59.059Z,9.59
2022-10-23T06:03:16.383Z,10.46
2022-10-23T06:04:19.612Z,11.55
2022-10-23T06:05:52.009Z,12.55
2022-10-23T06:06:57.287Z,13.32
2022-10-23T06:08:00.248Z,13.66
2022-10-23T06:09:04.039Z,14.02
2022-10-23T06:10:10.180Z,14.11
2022-10-23T06:11:16.599Z,13.92
2022-10-23T06:12:26.880Z,13.80
2022-10-23T06:13:29.237Z,13.58
2022-10-23T06:14:31.396Z,12.94
2022-10-23T06:15:33.826Z,12.28
2022-10-23T06:16:41.048Z,11.55
2022-10-23T06:17:43.993Z,11.02
2022-10-23T06:18:47.711Z,10.74
2022-10-23T06:19:51.476Z,10.55
2022-10-23T06:20:53.977Z,10.32
2022-10-23T06:22:01.546Z,10.22
2022-10-23T06:23:21.198Z,10.22
2022-10-23T06:24:52.611Z,10.45
2022-10-23T06:25:59.477Z,10.57
2022-10-23T06:27:11.421Z,10.80
2022-10-23T06:28:19.820Z,10.93
2022-10-23T06:29:23.364Z,11.02
2022-10-23T06:30:26.481Z,11.42
2022-10-23T06:31:28.875Z,11.87
2022-10-23T06:32:33.072Z,12.33
2022-10-23T06:33:45.543Z,13.08
2022-10-23T06:34:47.989Z,12.67
2022-10-23T06:35:50.215Z,12.08
2022-10-23T06:36:52.722Z,11.46
2022-10-23T06:38:10.635Z,11.21
2022-10-23T06:39:18.464Z,11.14
2022-10-23T06:40:55.797Z,11.27
2022-10-23T06:42:10.470Z,11.26
2022-10-23T06:43:27.906Z,11.25
2022-10-23T06:44:57.004Z,11.34
2022-10-23T06:46:19.291Z,11.41
2022-10-23T06:47:41.704Z,11.61
2022-10-23T06:49:20.364Z,12.39
2022-10-23T06:50:25.403Z,12.89
2022-10-23T06:51:29.916Z,13.58
2022-10-23T06:52:46.670Z,13.81
2022-10-23T06:53:52.337Z,13.71
2022-10-23T06:55:14.693Z,13.20
2022-10-23T06:56:17.133Z,13.14
2022-10-23T06:57:22.572Z,13.13
2022-10-23T06:58:26.080Z,13.52
2022-10-23T06:59:38.982Z,13.75
2022-10-23T07:00:42.573Z,13.66
2022-10-23T07:01:45.081Z,13.17
2022-10-23T07:02:48.369Z,13.06
2022-10-23T07:03:50.783Z,12.92
2022-10-23T07:04:57.933Z,12.77
2022-10-23T07:06:06.344Z,13.39
2022-10-23T07:07:08.800Z,13.36
2022-10-23T07:08:19.749Z,13.48
2022-10-23T07:09:27.178Z,12.93
2022-10-23T07:10:29.327Z,12.25
2022-10-23T07:11:33.417Z,11.99
2022-10-23T07:12:36.538Z,12.18
2022-10-23T07:13:59.048Z,12.25
2022-10-23T07:15:01.276Z,12.59
2022-10-23T07:16:11.138Z,12.55
2022-10-23T07:17:13.611Z,12.43
2022-10-23T07:18:17.079Z,12.55
2022-10-23T07:19:57.530Z,13.92
2022-10-23T07:21:00.134Z,13.87
2022-10-23T07:22:03.940Z,14.57
2022-10-23T07:23:41.447Z,13.86
2022-10-23T07:24:46.194Z,13.91
2022-10-23T07:26:11.694Z,14.39
2022-10-23T07:27:14.008Z,13.70
2022-10-23T07:28:16.625Z,13.55
2022-10-23T07:29:19.114Z,13.51
2022-10-23T07:30:22.840Z,14.74
2022-10-23T07:31:29.576Z,15.51
2022-10-23T07:32:50.635Z,16.12
2022-10-23T07:34:11.532Z,16.71
2022-10-23T07:36:39.885Z,16.36
2022-10-23T07:37:42.416Z,16.55
2022-10-23T07:38:45.623Z,16.48
2022-10-23T07:39:48.131Z,17.21
2022-10-23T07:40:50.396Z,17.57
2022-10-23T07:41:53.776Z,17.38
2022-10-23T07:42:56.558Z,16.13
2022-10-23T07:43:59.399Z,15.10
2022-10-23T07:45:01.866Z,14.51
2022-10-23T07:46:05.207Z,14.02
2022-10-23T07:47:11.848Z,13.91
2022-10-23T07:48:17.731Z,13.70
2022-10-23T07:49:33.683Z,13.56
2022-10-23T07:50:38.296Z,13.54
2022-10-23T07:51:40.719Z,13.39
2022-10-23T07:52:43.756Z,13.40
2022-10-23T07:53:48.580Z,13.36
2022-10-23T07:55:18.706Z,13.31
2022-10-23T07:56:30.098Z,13.52
2022-10-23T07:57:59.134Z,13.33
2022-10-23T07:59:27.868Z,13.42
2022-10-23T08:00:30.769Z,13.29
2022-10-23T08:01:44.094Z,13.63
2022-10-23T08:02:46.729Z,14.11
2022-10-23T08:03:49.113Z,14.12
2022-10-23T08:04:51.575Z,14.09
2022-10-23T08:06:10.256Z,14.31
2022-10-23T08:07:12.702Z,14.36
2022-10-23T08:08:18.409Z,14.57
2022-10-23T08:09:23.268Z,14.82
2022-10-23T08:10:25.645Z,14.96
2022-10-23T08:11:31.122Z,15.38
2022-10-23T08:12:33.585Z,15.45
2022-10-23T08:13:36.438Z,15.38
2022-10-23T08:14:41.263Z,15.69
2022-10-23T08:15:45.279Z,15.82
2022-10-23T08:17:10.035Z,15.25
2022-10-23T08:18:49.649Z,15.10
2022-10-23T08:19:53.380Z,14.99
2022-10-23T08:21:01.801Z,15.15
2022-10-23T08:22:04.100Z,15.45
2022-10-23T08:23:07.123Z,15.53
2022-10-23T08:24:13.994Z,16.01
2022-10-23T08:25:21.910Z,16.10
2022-10-23T08:26:31.320Z,15.50
2022-10-23T08:27:34.064Z,15.34
2022-10-23T08:28:36.729Z,14.99
2022-10-23T08:29:39.813Z,15.05
2022-10-23T08:30:42.189Z,14.94
2022-10-23T08:31:44.731Z,14.80
2022-10-23T08:32:57.638Z,14.61
2022-10-23T08:34:01.486Z,13.94
2022-10-23T08:35:03.846Z,13.97
2022-10-23T08:36:17.946Z,13.93
2022-10-23T08:37:20.159Z,13.89
2022-10-23T08:38:22.373Z,13.60
2022-10-23T08:39:24.589Z,13.57
2022-10-23T08:40:46.428Z,13.59
2022-10-23T08:42:25.937Z,13.64
2022-10-23T08:43:38.694Z,13.60
2022-10-23T08:45:06.011Z,13.67
2022-10-23T08:46:18.161Z,13.43
2022-10-23T08:47:46.752Z,13.38
2022-10-23T08:48:56.624Z,13.44
2022-10-23T08:51:44.237Z,13.45
2022-10-23T08:53:12.810Z,13.49
2022-10-23T08:54:20.712Z,13.47
2022-10-23T08:55:42.938Z,13.64
2022-10-23T08:56:52.456Z,13.51
2022-10-23T08:58:06.254Z,13.56
2022-10-23T08:59:20.130Z,13.59
2022-10-23T09:00:22.553Z,13.66
2022-10-23T09:01:47.148Z,13.65
2022-10-23T09:02:52.502Z,13.59
2022-10-23T09:03:54.746Z,13.60
2022-10-23T09:04:58.876Z,13.55
2022-10-23T09:06:09.064Z,13.44
2022-10-23T09:07:43.144Z,13.44
2022-10-23T09:08:51.037Z,13.37
2022-10-23T09:10:14.368Z,13.23
2022-10-23T09:12:07.166Z,13.13
2022-10-23T09:13:34.965Z,12.98
2022-10-23T09:14:55.945Z,13.09
2022-10-23T09:16:26.250Z,13.10
2022-10-23T09:17:29.696Z,13.06
2022-10-23T09:18:32.423Z,12.94
2022-10-23T09:19:34.973Z,12.81
2022-10-23T09:20:37.616Z,12.90
2022-10-23T09:21:39.965Z,12.99
2022-10-23T09:22:43.691Z,12.78
2022-10-23T09:23:45.978Z,12.99
2022-10-23T09:24:52.983Z,13.03
2022-10-23T09:25:57.246Z,13.09
2022-10-23T09:27:00.840Z,13.15
2022-10-23T09:28:05.544Z,13.02
2022-10-23T09:29:27.723Z,12.95
2022-10-23T09:30:32.864Z,12.67
2022-10-23T09:31:35.109Z,12.72
2022-10-23T09:32:38.450Z,12.72
2022-10-23T09:33:41.188Z,12.79
2022-10-23T09:34:55.226Z,12.88
2022-10-23T09:36:03.031Z,12.98
2022-10-23T09:37:22.532Z,12.84
2022-10-23T09:38:33.343Z,12.78
2022-10-23T09:39:37.008Z,12.66
2022-10-23T09:40:42.041Z,12.69
2022-10-23T09:41:44.529Z,12.70
2022-10-23T09:43:11.854Z,12.87
2022-10-23T09:44:23.090Z,12.63
2022-10-23T09:45:29.451Z,12.59
2022-10-23T09:46:46.002Z,12.50
2022-10-23T09:47:48.305Z,12.43
2022-10-23T09:48:59.030Z,12.42
2022-10-23T09:50:03.463Z,12.49
2022-10-23T09:51:26.109Z,12.59
2022-10-23T09:52:39.212Z,12.57
2022-10-23T09:54:01.768Z,12.60
2022-10-23T09:55:20.812Z,12.50
2022-10-23T09:56:35.409Z,12.51
2022-10-23T09:57:43.144Z,12.52
2022-10-23T09:58:56.684Z,12.50
2022-10-23T10:00:20.647Z,12.44
2022-10-23T10:01:36.478Z,12.46
2022-10-23T10:03:05.262Z,12.44
2022-10-23T10:04:31.129Z,12.43
2022-10-23T10:05:35.023Z,12.36
2022-10-23T10:06:43.310Z,12.34
2022-10-23T10:07:55.947Z,12.40
2022-10-23T10:09:15.675Z,12.43
2022-10-23T10:10:17.890Z,12.48
2022-10-23T10:11:37.568Z,12.51
2022-10-23T10:12:51.114Z,12.50
2022-10-23T10:14:01.956Z,12.49
2022-10-23T10:15:25.575Z,12.53
2022-10-23T10:16:54.227Z,12.53
2022-10-23T10:18:03.906Z,12.53
2022-10-23T10:19:21.609Z,12.59
2022-10-23T10:20:49.850Z,12.60
2022-10-23T10:22:16.758Z,12.67
2022-10-23T10:23:50.546Z,12.73
2022-10-23T10:25:20.285Z,12.63
2022-10-23T10:26:35.251Z,12.63
2022-10-23T10:27:54.640Z,12.64
2022-10-23T10:29:20.032Z,12.72
2022-10-23T10:30:23.922Z,12.80
2022-10-23T10:31:53.081Z,12.94
2022-10-23T10:33:01.332Z,13.05
2022-10-23T10:34:35.870Z,13.12
2022-10-23T10:35:50.393Z,13.17
2022-10-23T10:36:56.825Z,13.26
2022-10-23T10:38:33.926Z,13.40
2022-10-23T10:39:57.977Z,13.36
2022-10-23T10:41:18.803Z,13.38
2022-10-23T10:42:32.503Z,13.44
2022-10-23T10:43:40.870Z,13.45
2022-10-23T10:45:18.126Z,13.51
2022-10-23T10:46:27.869Z,13.57
2022-10-23T10:48:03.561Z,13.54
2022-10-23T10:49:22.079Z,13.73
2022-10-23T10:50:51.330Z,13.76
2022-10-23T10:52:22.558Z,13.94
2022-10-23T10:54:04.009Z,13.91
2022-10-23T10:55:19.283Z,13.93
2022-10-23T10:56:27.032Z,14.03
2022-10-23T10:57:34.661Z,14.09
2022-10-23T10:58:48.431Z,14.12
2022-10-23T10:59:54.492Z,14.08
2022-10-23T11:00:59.569Z,14.01
2022-10-23T11:02:28.765Z,14.03
2022-10-23T11:03:40.279Z,14.14
2022-10-23T11:05:06.023Z,14.17
2022-10-23T11:06:15.542Z,14.26
2022-10-23T11:07:22.828Z,14.27
2022-10-23T11:08:44.464Z,14.38
2022-10-23T11:10:00.523Z,14.46
2022-10-23T11:11:22.620Z,14.68
2022-10-23T11:12:28.036Z,14.62
2022-10-23T11:13:37.668Z,14.68
2022-10-23T11:14:42.879Z,14.81
2022-10-23T11:15:45.853Z,15.00
2022-10-23T11:17:10.441Z,15.17
2022-10-23T11:18:19.086Z,15.81
2022-10-23T11:19:34.909Z,16.13
2022-10-23T11:20:51.043Z,16.18
2022-10-23T11:21:56.650Z,16.06
2022-10-23T11:23:18.866Z,15.81
2022-10-23T11:24:26.882Z,15.94
2022-10-23T11:25:47.680Z,16.13
2022-10-23T11:27:08.819Z,15.77
2022-10-23T11:28:38.700Z,15.62
2022-10-23T11:30:15.276Z,15.53
2022-10-23T11:32:06.421Z,15.68
2022-10-23T11:33:34.373Z,15.70
2022-10-23T11:34:52.103Z,15.61
2022-10-23T11:36:03.071Z,15.66
2022-10-23T11:37:05.557Z,15.57
2022-10-23T11:38:13.778Z,15.49
2022-10-23T11:39:18.714Z,15.68
2022-10-23T11:40:25.777Z,15.75
2022-10-23T11:41:34.164Z,15.60
2022-10-23T11:42:39.940Z,15.65
2022-10-23T11:44:01.723Z,15.64
2022-10-23T11:45:05.006Z,15.65
2022-10-23T11:46:23.558Z,15.52
2022-10-23T11:47:37.979Z,15.69
2022-10-23T11:48:44.326Z,16.05
2022-10-23T11:49:46.540Z,16.18
2022-10-23T11:50:55.655Z,16.15
2022-10-23T11:52:04.301Z,16.22
2022-10-23T11:53:23.407Z,16.24
2022-10-23T11:54:27.460Z,16.54
2022-10-23T11:55:32.356Z,16.71
2022-10-23T11:56:35.146Z,16.58
2022-10-23T11:57:37.728Z,16.46
2022-10-23T11:58:53.477Z,16.15
2022-10-23T11:59:57.724Z,16.05
2022-10-23T12:01:05.965Z,16.03
2022-10-23T12:02:32.578Z,16.26
2022-10-23T12:03:59.409Z,16.78
2022-10-23T12:05:09.086Z,17.19
2022-10-23T12:06:23.038Z,17.59
2022-10-23T12:07:33.206Z,17.99
2022-10-23T12:08:40.095Z,18.02
2022-10-23T12:09:52.344Z,18.27
2022-10-23T12:10:55.614Z,18.33
2022-10-23T12:12:02.907Z,17.63
2022-10-23T12:13:06.776Z,17.40
2022-10-23T12:14:28.739Z,17.56
2022-10-23T12:15:33.164Z,17.38
2022-10-23T12:16:36.907Z,17.30
2022-10-23T12:17:40.602Z,17.24
2022-10-23T12:18:48.065Z,16.99
2022-10-23T12:19:53.925Z,16.58
2022-10-23T12:20:59.160Z,16.75
2022-10-23T12:22:02.458Z,16.71
2022-10-23T12:23:40.443Z,16.48
2022-10-23T12:24:59.829Z,16.28
2022-10-23T12:26:13.032Z,16.29
2022-10-23T12:27:57.341Z,16.80
2022-10-23T12:29:26.157Z,16.79
2022-10-23T12:30:47.819Z,16.64
2022-10-23T12:32:09.091Z,16.34
2022-10-23T12:33:37.746Z,16.23
2022-10-23T12:34:46.529Z,16.07
2022-10-23T12:36:39.053Z,16.10
2022-10-23T12:38:15.447Z,15.73
2022-10-23T12:39:28.704Z,15.69
2022-10-23T12:40:31.255Z,15.67
2022-10-23T12:41:35.332Z,15.62
2022-10-23T12:42:38.328Z,15.58
2022-10-23T12:43:44.196Z,15.54
2022-10-23T12:44:46.715Z,15.67
2022-10-23T12:45:50.552Z,15.76
2022-10-23T12:47:04.370Z,15.63
2022-10-23T12:48:07.382Z,15.60
2022-10-23T12:49:18.903Z,15.57
2022-10-23T12:50:24.509Z,15.60
2022-10-23T12:51:35.405Z,15.46
2022-10-23T12:52:39.902Z,15.57
2022-10-23T12:53:42.741Z,15.54
2022-10-23T12:54:45.858Z,15.44
2022-10-23T12:57:28.485Z,15.40
2022-10-23T12:58:33.613Z,15.33
2022-10-23T12:59:41.961Z,15.29
2022-10-23T13:00:53.764Z,15.25
2022-10-23T13:01:57.522Z,15.24
2022-10-23T13:03:04.412Z,15.24
2022-10-23T13:04:27.946Z,15.18
2022-10-23T13:05:32.417Z,15.13
2022-10-23T13:06:35.248Z,15.11
2022-10-23T13:07:44.882Z,15.09
2022-10-23T13:08:50.257Z,15.05
2022-10-23T13:10:19.191Z,14.95
2022-10-23T13:11:37.424Z,14.97
2022-10-23T13:12:50.872Z,15.11
2022-10-23T13:13:53.779Z,15.00
2022-10-23T13:15:00.836Z,14.99
2022-10-23T13:16:15.498Z,14.99
2022-10-23T13:17:19.075Z,14.95
2022-10-23T13:18:21.783Z,14.83
2022-10-23T13:19:26.201Z,14.77
2022-10-23T13:20:38.362Z,14.84
2022-10-23T13:21:46.716Z,14.75
2022-10-23T13:23:01.232Z,14.77
2022-10-23T13:24:04.185Z,14.68
2022-10-23T13:25:27.791Z,14.59
2022-10-23T13:26:47.753Z,14.68
2022-10-23T13:27:51.432Z,14.68
2022-10-23T13:28:54.672Z,14.61
2022-10-23T13:29:58.481Z,14.51
2022-10-23T13:31:26.335Z,14.42
2022-10-23T13:32:31.084Z,14.45
2022-10-23T13:33:37.365Z,14.46
2022-10-23T13:34:40.060Z,14.50
2022-10-23T13:35:42.809Z,14.44
2022-10-23T13:36:59.402Z,14.42
2022-10-23T13:38:11.291Z,14.33
2022-10-23T13:39:17.335Z,14.31
2022-10-23T13:40:26.584Z,14.29
2022-10-23T13:41:41.423Z,14.29
2022-10-23T13:42:44.462Z,14.24
2022-10-23T13:43:48.259Z,14.31
2022-10-23T13:44:50.950Z,14.39
2022-10-23T13:45:53.969Z,14.29
2022-10-23T13:46:57.101Z,14.34
2022-10-23T13:48:00.103Z,14.36
2022-10-23T13:49:03.136Z,14.32
2022-10-23T13:50:07.880Z,14.23
2022-10-23T13:51:24.207Z,14.18
2022-10-23T13:52:28.379Z,14.10
2022-10-23T13:53:31.799Z,14.06
2022-10-23T13:54:34.872Z,14.12
2022-10-23T13:55:40.865Z,14.07
2022-10-23T13:56:43.997Z,14.02
2022-10-23T13:57:47.595Z,14.10
2022-10-23T13:58:51.414Z,14.02
2022-10-23T13:59:56.387Z,14.04
2022-10-23T14:00:59.501Z,14.02
2022-10-23T14:02:05.517Z,14.03
2022-10-23T14:03:09.298Z,14.03
2022-10-23T14:04:13.548Z,14.04
2022-10-23T14:05:17.838Z,14.06
2022-10-23T14:06:20.691Z,14.05
2022-10-23T14:07:24.546Z,14.03
2022-10-23T14:08:27.811Z,13.94
2022-10-23T14:09:31.737Z,13.97
2022-10-23T14:10:35.228Z,13.93
2022-10-23T14:11:41.301Z,13.90
2022-10-23T14:12:45.255Z,13.88
2022-10-23T14:13:49.113Z,13.87
2022-10-23T14:14:53.431Z,13.93
2022-10-23T14:15:56.278Z,13.91
2022-10-23T14:16:59.682Z,13.83
2022-10-23T14:18:08.071Z,13.86
2022-10-23T14:19:12.106Z,13.86
2022-10-23T14:20:17.258Z,13.82
2022-10-23T14:21:23.107Z,13.83
2022-10-23T14:22:27.615Z,13.91
2022-10-23T14:23:31.317Z,13.87
2022-10-23T14:24:35.508Z,13.86
2022-10-23T14:25:38.249Z,13.85
2022-10-23T14:26:42.847Z,13.85
2022-10-23T14:27:46.009Z,13.85
2022-10-23T14:28:53.719Z,13.87
2022-10-23T14:29:58.011Z,13.81
2022-10-23T14:31:08.901Z,13.89
2022-10-23T14:32:12.220Z,13.89
2022-10-23T14:33:17.245Z,13.85
2022-10-23T14:34:20.470Z,13.83
2022-10-23T14:35:23.445Z,13.86
2022-10-23T14:36:34.266Z,13.85
2022-10-23T14:37:48.754Z,13.89
2022-10-23T14:38:56.281Z,13.92
2022-10-23T14:39:59.901Z,13.89
2022-10-23T14:41:03.120Z,13.94
2022-10-23T14:42:06.123Z,13.88
2022-10-23T14:43:10.252Z,13.92
2022-10-23T14:44:15.233Z,13.97
2022-10-23T14:45:19.129Z,13.99
2022-10-23T14:46:26.132Z,13.95
2022-10-23T14:47:30.064Z,13.96
2022-10-23T14:48:33.229Z,14.00
2022-10-23T14:49:36.474Z,14.01
2022-10-23T14:50:44.959Z,13.92
2022-10-23T14:51:48.616Z,13.90
2022-10-23T14:52:52.159Z,13.92
2022-10-23T14:53:58.903Z,13.97
2022-10-23T14:55:02.551Z,13.96
2022-10-23T14:56:06.528Z,14.01
2022-10-23T14:57:09.850Z,13.99
2022-10-23T14:58:13.598Z,13.92
2022-10-23T14:59:16.925Z,13.98
2022-10-23T15:00:19.783Z,13.89
2022-10-23T15:01:23.697Z,13.91
2022-10-23T15:02:28.335Z,13.86
2022-10-23T15:03:31.432Z,13.75
2022-10-23T15:04:35.488Z,13.74
2022-10-23T15:05:42.080Z,13.75
2022-10-23T15:06:47.790Z,13.75
2022-10-23T15:07:52.750Z,13.67
2022-10-23T15:08:56.788Z,13.66
2022-10-23T15:09:59.565Z,13.68
2022-10-23T15:11:07.678Z,13.58
2022-10-23T15:12:13.143Z,13.49
2022-10-23T15:13:15.866Z,13.53
2022-10-23T15:14:18.597Z,13.54
2022-10-23T15:15:22.507Z,13.45